sensor_id;sensor_type;location;lat;lon;timestamp;P1;durP1;ratioP1;P2;durP2;ratioP2
46288;SDS011;63105;46.158;14.604;2023-06-14T00:00:16;4.23;;;2.90;;
46288;SDS011;63105;46.158;14.604;2023-06-14T00:02:41;4.35;;;2.80;;
46288;SDS011;63105;46.158;14.604;2023-06-14T00:05:06;4.50;;;2.93;;
46288;SDS011;63105;46.158;14.604;2023-06-14T00:07:36;4.00;;;2.60;;
46288;SDS011;63105;46.158;14.604;2023-06-14T00:10:02;4.90;;;2.63;;
46288;SDS011;63105;46.158;14.604;2023-06-14T00:12:28;5.22;;;2.80;;
46288;SDS011;63105;46.158;14.604;2023-06-14T00:14:53;4.27;;;2.70;;
46288;SDS011;63105;46.158;14.604;2023-06-14T00:17:18;4.40;;;2.60;;
46288;SDS011;63105;46.158;14.604;2023-06-14T00:19:43;7.27;;;2.70;;
46288;SDS011;63105;46.158;14.604;2023-06-14T00:22:08;5.80;;;2.63;;
46288;SDS011;63105;46.158;14.604;2023-06-14T00:24:34;4.78;;;2.92;;
46288;SDS011;63105;46.158;14.604;2023-06-14T00:26:59;4.22;;;2.60;;
46288;SDS011;63105;46.158;14.604;2023-06-14T00:29:25;4.90;;;2.83;;
46288;SDS011;63105;46.158;14.604;2023-06-14T00:31:50;4.78;;;2.60;;
46288;SDS011;63105;46.158;14.604;2023-06-14T00:34:15;4.50;;;2.80;;
46288;SDS011;63105;46.158;14.604;2023-06-14T00:36:40;3.80;;;2.60;;
46288;SDS011;63105;46.158;14.604;2023-06-14T00:39:05;5.30;;;2.93;;
46288;SDS011;63105;46.158;14.604;2023-06-14T00:41:31;3.93;;;2.50;;
46288;SDS011;63105;46.158;14.604;2023-06-14T00:43:56;4.37;;;2.53;;
46288;SDS011;63105;46.158;14.604;2023-06-14T00:46:21;4.70;;;2.90;;
46288;SDS011;63105;46.158;14.604;2023-06-14T00:48:47;4.72;;;2.97;;
46288;SDS011;63105;46.158;14.604;2023-06-14T00:51:12;4.20;;;2.70;;
46288;SDS011;63105;46.158;14.604;2023-06-14T00:53:38;3.83;;;2.60;;
46288;SDS011;63105;46.158;14.604;2023-06-14T00:56:04;4.47;;;2.70;;
46288;SDS011;63105;46.158;14.604;2023-06-14T00:58:30;4.25;;;2.95;;
46288;SDS011;63105;46.158;14.604;2023-06-14T01:00:55;5.80;;;2.50;;
46288;SDS011;63105;46.158;14.604;2023-06-14T01:03:21;4.93;;;2.83;;
46288;SDS011;63105;46.158;14.604;2023-06-14T01:05:49;4.65;;;2.83;;
46288;SDS011;63105;46.158;14.604;2023-06-14T01:08:20;4.53;;;3.08;;
46288;SDS011;63105;46.158;14.604;2023-06-14T01:13:13;4.30;;;2.67;;
46288;SDS011;63105;46.158;14.604;2023-06-14T01:15:40;4.00;;;2.63;;
46288;SDS011;63105;46.158;14.604;2023-06-14T01:18:06;4.40;;;2.50;;
46288;SDS011;63105;46.158;14.604;2023-06-14T01:20:32;4.93;;;3.00;;
46288;SDS011;63105;46.158;14.604;2023-06-14T01:23:01;4.68;;;2.85;;
46288;SDS011;63105;46.158;14.604;2023-06-14T01:25:27;4.10;;;2.70;;
46288;SDS011;63105;46.158;14.604;2023-06-14T01:27:55;4.72;;;2.92;;
46288;SDS011;63105;46.158;14.604;2023-06-14T01:30:21;4.05;;;2.70;;
46288;SDS011;63105;46.158;14.604;2023-06-14T01:32:48;4.28;;;2.75;;
46288;SDS011;63105;46.158;14.604;2023-06-14T01:35:15;4.70;;;2.83;;
46288;SDS011;63105;46.158;14.604;2023-06-14T01:37:40;4.50;;;2.85;;
46288;SDS011;63105;46.158;14.604;2023-06-14T01:40:06;4.22;;;2.78;;
46288;SDS011;63105;46.158;14.604;2023-06-14T01:42:35;5.05;;;2.95;;
46288;SDS011;63105;46.158;14.604;2023-06-14T01:45:02;4.72;;;2.80;;
46288;SDS011;63105;46.158;14.604;2023-06-14T01:47:27;4.57;;;2.90;;
46288;SDS011;63105;46.158;14.604;2023-06-14T01:49:52;4.00;;;2.50;;
46288;SDS011;63105;46.158;14.604;2023-06-14T01:52:17;4.07;;;2.80;;
46288;SDS011;63105;46.158;14.604;2023-06-14T01:54:44;5.50;;;2.85;;
46288;SDS011;63105;46.158;14.604;2023-06-14T01:57:09;4.57;;;2.83;;
46288;SDS011;63105;46.158;14.604;2023-06-14T01:59:35;4.45;;;2.65;;
46288;SDS011;63105;46.158;14.604;2023-06-14T02:02:02;4.83;;;3.00;;
46288;SDS011;63105;46.158;14.604;2023-06-14T02:04:27;5.53;;;2.95;;
46288;SDS011;63105;46.158;14.604;2023-06-14T02:06:52;4.40;;;2.80;;
46288;SDS011;63105;46.158;14.604;2023-06-14T02:09:17;4.27;;;2.50;;
46288;SDS011;63105;46.158;14.604;2023-06-14T02:11:43;4.28;;;2.88;;
46288;SDS011;63105;46.158;14.604;2023-06-14T02:14:08;5.50;;;2.83;;
46288;SDS011;63105;46.158;14.604;2023-06-14T02:16:36;4.72;;;2.63;;
46288;SDS011;63105;46.158;14.604;2023-06-14T02:19:01;3.70;;;2.50;;
46288;SDS011;63105;46.158;14.604;2023-06-14T02:21:26;5.03;;;3.00;;
46288;SDS011;63105;46.158;14.604;2023-06-14T02:23:51;4.40;;;2.85;;
46288;SDS011;63105;46.158;14.604;2023-06-14T02:26:16;5.55;;;2.75;;
46288;SDS011;63105;46.158;14.604;2023-06-14T02:28:42;4.72;;;3.00;;
46288;SDS011;63105;46.158;14.604;2023-06-14T02:31:07;4.73;;;2.60;;
46288;SDS011;63105;46.158;14.604;2023-06-14T02:33:33;4.15;;;2.70;;
46288;SDS011;63105;46.158;14.604;2023-06-14T02:35:58;4.77;;;3.00;;
46288;SDS011;63105;46.158;14.604;2023-06-14T02:38:23;4.00;;;2.60;;
46288;SDS011;63105;46.158;14.604;2023-06-14T02:40:48;4.47;;;2.80;;
46288;SDS011;63105;46.158;14.604;2023-06-14T02:43:13;3.93;;;2.53;;
46288;SDS011;63105;46.158;14.604;2023-06-14T02:45:39;4.27;;;2.70;;
46288;SDS011;63105;46.158;14.604;2023-06-14T02:48:05;4.13;;;2.70;;
46288;SDS011;63105;46.158;14.604;2023-06-14T02:50:30;4.93;;;3.00;;
46288;SDS011;63105;46.158;14.604;2023-06-14T02:52:55;3.85;;;2.45;;
46288;SDS011;63105;46.158;14.604;2023-06-14T02:55:22;4.60;;;2.92;;
46288;SDS011;63105;46.158;14.604;2023-06-14T02:57:47;4.97;;;2.97;;
46288;SDS011;63105;46.158;14.604;2023-06-14T03:00:13;4.57;;;2.90;;
46288;SDS011;63105;46.158;14.604;2023-06-14T03:02:38;4.47;;;2.78;;
46288;SDS011;63105;46.158;14.604;2023-06-14T03:05:03;5.15;;;2.90;;
46288;SDS011;63105;46.158;14.604;2023-06-14T03:07:31;4.18;;;2.78;;
46288;SDS011;63105;46.158;14.604;2023-06-14T03:09:56;4.82;;;2.70;;
46288;SDS011;63105;46.158;14.604;2023-06-14T03:12:21;4.53;;;2.80;;
46288;SDS011;63105;46.158;14.604;2023-06-14T03:14:48;4.78;;;2.85;;
46288;SDS011;63105;46.158;14.604;2023-06-14T03:17:15;4.78;;;2.50;;
46288;SDS011;63105;46.158;14.604;2023-06-14T03:19:42;4.30;;;2.90;;
46288;SDS011;63105;46.158;14.604;2023-06-14T03:22:07;4.53;;;2.80;;
46288;SDS011;63105;46.158;14.604;2023-06-14T03:24:33;4.80;;;2.92;;
46288;SDS011;63105;46.158;14.604;2023-06-14T03:27:01;4.15;;;2.58;;
46288;SDS011;63105;46.158;14.604;2023-06-14T03:29:26;4.80;;;3.28;;
46288;SDS011;63105;46.158;14.604;2023-06-14T03:31:56;5.23;;;2.80;;
46288;SDS011;63105;46.158;14.604;2023-06-14T03:34:22;4.75;;;2.88;;
46288;SDS011;63105;46.158;14.604;2023-06-14T03:36:47;4.93;;;3.10;;
46288;SDS011;63105;46.158;14.604;2023-06-14T03:39:12;3.80;;;2.70;;
46288;SDS011;63105;46.158;14.604;2023-06-14T03:41:37;4.47;;;2.78;;
46288;SDS011;63105;46.158;14.604;2023-06-14T03:44:03;5.60;;;3.10;;
46288;SDS011;63105;46.158;14.604;2023-06-14T03:46:28;4.20;;;2.75;;
46288;SDS011;63105;46.158;14.604;2023-06-14T03:48:53;4.63;;;2.75;;
46288;SDS011;63105;46.158;14.604;2023-06-14T03:51:18;4.47;;;2.83;;
46288;SDS011;63105;46.158;14.604;2023-06-14T03:53:43;4.83;;;3.13;;
46288;SDS011;63105;46.158;14.604;2023-06-14T03:56:08;4.70;;;3.10;;
46288;SDS011;63105;46.158;14.604;2023-06-14T03:58:34;5.25;;;2.90;;
46288;SDS011;63105;46.158;14.604;2023-06-14T04:00:59;4.20;;;2.60;;
46288;SDS011;63105;46.158;14.604;2023-06-14T04:03:25;4.63;;;2.85;;
46288;SDS011;63105;46.158;14.604;2023-06-14T04:05:53;4.88;;;2.85;;
46288;SDS011;63105;46.158;14.604;2023-06-14T04:08:21;5.00;;;2.80;;
46288;SDS011;63105;46.158;14.604;2023-06-14T04:10:47;5.53;;;2.75;;
46288;SDS011;63105;46.158;14.604;2023-06-14T04:13:12;4.90;;;2.97;;
46288;SDS011;63105;46.158;14.604;2023-06-14T04:15:38;4.75;;;2.85;;
46288;SDS011;63105;46.158;14.604;2023-06-14T04:18:06;4.57;;;3.00;;
46288;SDS011;63105;46.158;14.604;2023-06-14T04:20:32;5.40;;;2.90;;
46288;SDS011;63105;46.158;14.604;2023-06-14T04:23:10;4.60;;;2.92;;
46288;SDS011;63105;46.158;14.604;2023-06-14T04:25:37;4.30;;;2.80;;
46288;SDS011;63105;46.158;14.604;2023-06-14T04:28:02;4.67;;;2.77;;
46288;SDS011;63105;46.158;14.604;2023-06-14T04:30:28;4.60;;;2.80;;
46288;SDS011;63105;46.158;14.604;2023-06-14T04:32:56;4.60;;;2.60;;
46288;SDS011;63105;46.158;14.604;2023-06-14T04:35:21;4.97;;;2.83;;
46288;SDS011;63105;46.158;14.604;2023-06-14T04:37:48;3.95;;;2.53;;
46288;SDS011;63105;46.158;14.604;2023-06-14T04:40:14;4.15;;;2.80;;
46288;SDS011;63105;46.158;14.604;2023-06-14T04:42:39;4.33;;;2.80;;
46288;SDS011;63105;46.158;14.604;2023-06-14T04:45:06;4.15;;;2.78;;
46288;SDS011;63105;46.158;14.604;2023-06-14T04:47:32;4.20;;;2.92;;
46288;SDS011;63105;46.158;14.604;2023-06-14T04:49:57;3.85;;;2.60;;
46288;SDS011;63105;46.158;14.604;2023-06-14T04:52:23;4.80;;;2.60;;
46288;SDS011;63105;46.158;14.604;2023-06-14T04:54:51;4.30;;;2.50;;
46288;SDS011;63105;46.158;14.604;2023-06-14T04:57:17;4.70;;;2.90;;
46288;SDS011;63105;46.158;14.604;2023-06-14T04:59:43;3.78;;;2.40;;
46288;SDS011;63105;46.158;14.604;2023-06-14T05:02:09;5.55;;;2.78;;
46288;SDS011;63105;46.158;14.604;2023-06-14T05:04:34;4.28;;;2.60;;
46288;SDS011;63105;46.158;14.604;2023-06-14T05:07:04;4.35;;;2.67;;
46288;SDS011;63105;46.158;14.604;2023-06-14T05:09:31;4.97;;;2.65;;
46288;SDS011;63105;46.158;14.604;2023-06-14T05:11:56;4.63;;;2.70;;
46288;SDS011;63105;46.158;14.604;2023-06-14T05:14:23;5.60;;;3.38;;
46288;SDS011;63105;46.158;14.604;2023-06-14T05:16:48;9.15;;;3.78;;
46288;SDS011;63105;46.158;14.604;2023-06-14T05:19:14;5.30;;;3.70;;
46288;SDS011;63105;46.158;14.604;2023-06-14T05:21:39;5.67;;;3.80;;
46288;SDS011;63105;46.158;14.604;2023-06-14T05:24:04;4.40;;;3.07;;
46288;SDS011;63105;46.158;14.604;2023-06-14T05:26:29;5.30;;;3.38;;
46288;SDS011;63105;46.158;14.604;2023-06-14T05:28:57;7.93;;;4.50;;
46288;SDS011;63105;46.158;14.604;2023-06-14T05:31:23;6.90;;;4.65;;
46288;SDS011;63105;46.158;14.604;2023-06-14T05:33:49;7.68;;;4.22;;
46288;SDS011;63105;46.158;14.604;2023-06-14T05:36:14;5.28;;;3.85;;
46288;SDS011;63105;46.158;14.604;2023-06-14T05:38:40;6.78;;;4.13;;
46288;SDS011;63105;46.158;14.604;2023-06-14T05:41:05;6.17;;;3.93;;
46288;SDS011;63105;46.158;14.604;2023-06-14T05:43:30;5.63;;;3.50;;
46288;SDS011;63105;46.158;14.604;2023-06-14T05:45:56;6.97;;;3.90;;
46288;SDS011;63105;46.158;14.604;2023-06-14T05:48:22;5.30;;;3.90;;
46288;SDS011;63105;46.158;14.604;2023-06-14T05:50:47;4.67;;;3.10;;
46288;SDS011;63105;46.158;14.604;2023-06-14T05:53:12;4.78;;;2.60;;
46288;SDS011;63105;46.158;14.604;2023-06-14T05:55:37;4.40;;;2.70;;
46288;SDS011;63105;46.158;14.604;2023-06-14T05:58:02;5.10;;;3.20;;
46288;SDS011;63105;46.158;14.604;2023-06-14T06:00:28;5.30;;;3.40;;
46288;SDS011;63105;46.158;14.604;2023-06-14T06:02:53;6.10;;;4.23;;
46288;SDS011;63105;46.158;14.604;2023-06-14T06:05:18;9.60;;;4.23;;
46288;SDS011;63105;46.158;14.604;2023-06-14T06:07:44;7.78;;;4.50;;
46288;SDS011;63105;46.158;14.604;2023-06-14T06:10:10;5.82;;;3.90;;
46288;SDS011;63105;46.158;14.604;2023-06-14T06:12:36;5.03;;;3.30;;
46288;SDS011;63105;46.158;14.604;2023-06-14T06:15:01;6.80;;;4.13;;
46288;SDS011;63105;46.158;14.604;2023-06-14T06:17:26;9.63;;;4.50;;
46288;SDS011;63105;46.158;14.604;2023-06-14T06:19:52;5.72;;;3.47;;
46288;SDS011;63105;46.158;14.604;2023-06-14T06:22:17;5.47;;;3.33;;
46288;SDS011;63105;46.158;14.604;2023-06-14T06:24:42;4.83;;;3.30;;
46288;SDS011;63105;46.158;14.604;2023-06-14T06:27:07;6.30;;;3.10;;
46288;SDS011;63105;46.158;14.604;2023-06-14T06:29:33;4.78;;;3.20;;
46288;SDS011;63105;46.158;14.604;2023-06-14T06:31:58;5.60;;;3.20;;
46288;SDS011;63105;46.158;14.604;2023-06-14T06:34:23;6.35;;;3.20;;
46288;SDS011;63105;46.158;14.604;2023-06-14T06:36:48;4.40;;;3.00;;
46288;SDS011;63105;46.158;14.604;2023-06-14T06:39:14;6.70;;;3.10;;
46288;SDS011;63105;46.158;14.604;2023-06-14T06:41:40;5.13;;;2.97;;
46288;SDS011;63105;46.158;14.604;2023-06-14T06:44:05;4.30;;;3.15;;
46288;SDS011;63105;46.158;14.604;2023-06-14T06:46:31;5.05;;;3.47;;
46288;SDS011;63105;46.158;14.604;2023-06-14T06:48:56;6.72;;;3.50;;
46288;SDS011;63105;46.158;14.604;2023-06-14T06:51:22;5.43;;;3.60;;
46288;SDS011;63105;46.158;14.604;2023-06-14T06:53:51;5.47;;;3.20;;
46288;SDS011;63105;46.158;14.604;2023-06-14T06:56:17;4.45;;;3.10;;
46288;SDS011;63105;46.158;14.604;2023-06-14T06:58:42;5.43;;;3.37;;
46288;SDS011;63105;46.158;14.604;2023-06-14T07:01:07;5.67;;;3.60;;
46288;SDS011;63105;46.158;14.604;2023-06-14T07:03:34;4.32;;;3.03;;
46288;SDS011;63105;46.158;14.604;2023-06-14T07:05:59;3.88;;;2.70;;
46288;SDS011;63105;46.158;14.604;2023-06-14T07:08:24;5.67;;;3.00;;
46288;SDS011;63105;46.158;14.604;2023-06-14T07:10:50;4.90;;;2.90;;
46288;SDS011;63105;46.158;14.604;2023-06-14T07:13:15;4.90;;;3.13;;
46288;SDS011;63105;46.158;14.604;2023-06-14T07:15:40;5.32;;;3.10;;
46288;SDS011;63105;46.158;14.604;2023-06-14T07:18:05;4.13;;;2.70;;
46288;SDS011;63105;46.158;14.604;2023-06-14T07:20:31;3.78;;;2.60;;
46288;SDS011;63105;46.158;14.604;2023-06-14T07:22:58;3.88;;;2.58;;
46288;SDS011;63105;46.158;14.604;2023-06-14T07:25:23;3.73;;;2.30;;
46288;SDS011;63105;46.158;14.604;2023-06-14T07:27:48;6.60;;;2.30;;
46288;SDS011;63105;46.158;14.604;2023-06-14T07:30:13;4.10;;;2.50;;
46288;SDS011;63105;46.158;14.604;2023-06-14T07:32:38;3.92;;;2.40;;
46288;SDS011;63105;46.158;14.604;2023-06-14T07:35:04;3.88;;;2.50;;
46288;SDS011;63105;46.158;14.604;2023-06-14T07:37:30;4.50;;;2.60;;
46288;SDS011;63105;46.158;14.604;2023-06-14T07:39:56;5.40;;;2.85;;
46288;SDS011;63105;46.158;14.604;2023-06-14T07:42:21;3.83;;;2.67;;
46288;SDS011;63105;46.158;14.604;2023-06-14T07:44:46;3.80;;;2.37;;
46288;SDS011;63105;46.158;14.604;2023-06-14T07:47:11;4.23;;;2.50;;
46288;SDS011;63105;46.158;14.604;2023-06-14T07:49:36;4.75;;;2.10;;
46288;SDS011;63105;46.158;14.604;2023-06-14T07:52:02;7.35;;;2.80;;
46288;SDS011;63105;46.158;14.604;2023-06-14T07:54:27;3.90;;;2.33;;
46288;SDS011;63105;46.158;14.604;2023-06-14T07:56:53;4.25;;;2.50;;
46288;SDS011;63105;46.158;14.604;2023-06-14T07:59:18;3.42;;;2.22;;
46288;SDS011;63105;46.158;14.604;2023-06-14T08:01:43;4.90;;;2.33;;
46288;SDS011;63105;46.158;14.604;2023-06-14T08:04:12;3.45;;;2.22;;
46288;SDS011;63105;46.158;14.604;2023-06-14T08:06:37;4.03;;;2.38;;
46288;SDS011;63105;46.158;14.604;2023-06-14T08:09:02;4.30;;;2.60;;
46288;SDS011;63105;46.158;14.604;2023-06-14T08:11:27;3.75;;;2.30;;
46288;SDS011;63105;46.158;14.604;2023-06-14T08:13:53;3.77;;;2.40;;
46288;SDS011;63105;46.158;14.604;2023-06-14T08:16:18;3.58;;;2.15;;
46288;SDS011;63105;46.158;14.604;2023-06-14T08:18:43;3.35;;;2.10;;
46288;SDS011;63105;46.158;14.604;2023-06-14T08:21:08;3.13;;;1.73;;
46288;SDS011;63105;46.158;14.604;2023-06-14T08:23:34;3.15;;;1.90;;
46288;SDS011;63105;46.158;14.604;2023-06-14T08:25:59;3.90;;;2.30;;
46288;SDS011;63105;46.158;14.604;2023-06-14T08:28:26;3.65;;;2.00;;
46288;SDS011;63105;46.158;14.604;2023-06-14T08:30:51;3.87;;;2.30;;
46288;SDS011;63105;46.158;14.604;2023-06-14T08:33:16;3.63;;;2.00;;
46288;SDS011;63105;46.158;14.604;2023-06-14T08:35:42;4.67;;;1.83;;
46288;SDS011;63105;46.158;14.604;2023-06-14T08:38:07;3.03;;;1.80;;
46288;SDS011;63105;46.158;14.604;2023-06-14T08:40:32;3.20;;;1.87;;
46288;SDS011;63105;46.158;14.604;2023-06-14T08:43:01;3.72;;;1.90;;
46288;SDS011;63105;46.158;14.604;2023-06-14T08:45:27;3.30;;;2.07;;
46288;SDS011;63105;46.158;14.604;2023-06-14T08:47:52;3.40;;;2.00;;
46288;SDS011;63105;46.158;14.604;2023-06-14T08:50:22;4.35;;;2.50;;
46288;SDS011;63105;46.158;14.604;2023-06-14T08:52:50;3.65;;;2.10;;
46288;SDS011;63105;46.158;14.604;2023-06-14T08:55:18;4.07;;;2.15;;
46288;SDS011;63105;46.158;14.604;2023-06-14T08:57:45;3.63;;;2.10;;
46288;SDS011;63105;46.158;14.604;2023-06-14T09:00:11;4.43;;;2.17;;
46288;SDS011;63105;46.158;14.604;2023-06-14T09:02:38;3.45;;;2.10;;
46288;SDS011;63105;46.158;14.604;2023-06-14T09:05:11;3.60;;;2.10;;
46288;SDS011;63105;46.158;14.604;2023-06-14T09:07:38;3.80;;;2.00;;
46288;SDS011;63105;46.158;14.604;2023-06-14T09:10:06;3.80;;;2.13;;
46288;SDS011;63105;46.158;14.604;2023-06-14T09:12:32;3.40;;;2.10;;
46288;SDS011;63105;46.158;14.604;2023-06-14T09:14:57;4.03;;;2.60;;
46288;SDS011;63105;46.158;14.604;2023-06-14T09:17:22;3.63;;;2.03;;
46288;SDS011;63105;46.158;14.604;2023-06-14T09:19:48;4.03;;;2.13;;
46288;SDS011;63105;46.158;14.604;2023-06-14T09:22:13;3.37;;;1.87;;
46288;SDS011;63105;46.158;14.604;2023-06-14T09:24:38;4.03;;;2.13;;
46288;SDS011;63105;46.158;14.604;2023-06-14T09:27:03;4.27;;;2.00;;
46288;SDS011;63105;46.158;14.604;2023-06-14T09:29:29;4.78;;;2.33;;
46288;SDS011;63105;46.158;14.604;2023-06-14T09:31:55;3.22;;;2.00;;
46288;SDS011;63105;46.158;14.604;2023-06-14T09:34:20;3.60;;;2.07;;
46288;SDS011;63105;46.158;14.604;2023-06-14T09:36:48;3.10;;;1.80;;
46288;SDS011;63105;46.158;14.604;2023-06-14T09:39:16;3.65;;;2.13;;
46288;SDS011;63105;46.158;14.604;2023-06-14T09:41:42;3.40;;;2.00;;
46288;SDS011;63105;46.158;14.604;2023-06-14T09:44:08;4.72;;;2.00;;
46288;SDS011;63105;46.158;14.604;2023-06-14T09:46:34;3.67;;;2.08;;
46288;SDS011;63105;46.158;14.604;2023-06-14T09:49:00;3.30;;;1.98;;
46288;SDS011;63105;46.158;14.604;2023-06-14T09:51:26;3.25;;;1.90;;
46288;SDS011;63105;46.158;14.604;2023-06-14T09:53:51;3.50;;;1.98;;
46288;SDS011;63105;46.158;14.604;2023-06-14T09:56:24;3.22;;;1.92;;
46288;SDS011;63105;46.158;14.604;2023-06-14T09:58:51;3.58;;;2.00;;
46288;SDS011;63105;46.158;14.604;2023-06-14T10:01:18;3.85;;;2.10;;
46288;SDS011;63105;46.158;14.604;2023-06-14T10:03:43;3.47;;;2.07;;
46288;SDS011;63105;46.158;14.604;2023-06-14T10:06:09;3.00;;;1.90;;
46288;SDS011;63105;46.158;14.604;2023-06-14T10:08:34;3.00;;;1.55;;
46288;SDS011;63105;46.158;14.604;2023-06-14T10:11:02;3.42;;;1.98;;
46288;SDS011;63105;46.158;14.604;2023-06-14T10:13:27;3.60;;;2.08;;
46288;SDS011;63105;46.158;14.604;2023-06-14T10:21:38;3.33;;;1.98;;
46288;SDS011;63105;46.158;14.604;2023-06-14T10:24:07;3.55;;;1.95;;
46288;SDS011;63105;46.158;14.604;2023-06-14T10:26:33;3.72;;;1.90;;
46288;SDS011;63105;46.158;14.604;2023-06-14T10:29:01;3.30;;;1.90;;
46288;SDS011;63105;46.158;14.604;2023-06-14T10:31:41;3.90;;;1.95;;
46288;SDS011;63105;46.158;14.604;2023-06-14T10:34:10;3.55;;;2.08;;
46288;SDS011;63105;46.158;14.604;2023-06-14T10:36:36;3.40;;;1.98;;
46288;SDS011;63105;46.158;14.604;2023-06-14T10:39:06;3.30;;;2.05;;
46288;SDS011;63105;46.158;14.604;2023-06-14T10:41:37;3.30;;;1.92;;
46288;SDS011;63105;46.158;14.604;2023-06-14T10:46:40;3.65;;;2.10;;
46288;SDS011;63105;46.158;14.604;2023-06-14T10:49:05;2.90;;;1.70;;
46288;SDS011;63105;46.158;14.604;2023-06-14T10:51:37;4.10;;;1.90;;
46288;SDS011;63105;46.158;14.604;2023-06-14T10:54:11;3.60;;;2.22;;
46288;SDS011;63105;46.158;14.604;2023-06-14T10:56:36;3.60;;;2.03;;
46288;SDS011;63105;46.158;14.604;2023-06-14T10:59:01;3.40;;;2.10;;
46288;SDS011;63105;46.158;14.604;2023-06-14T11:01:37;3.38;;;2.00;;
46288;SDS011;63105;46.158;14.604;2023-06-14T11:04:07;3.70;;;1.75;;
46288;SDS011;63105;46.158;14.604;2023-06-14T11:06:36;3.70;;;2.20;;
46288;SDS011;63105;46.158;14.604;2023-06-14T11:11:55;3.40;;;2.00;;
46288;SDS011;63105;46.158;14.604;2023-06-14T11:14:21;3.83;;;2.17;;
46288;SDS011;63105;46.158;14.604;2023-06-14T11:16:49;3.33;;;2.13;;
46288;SDS011;63105;46.158;14.604;2023-06-14T11:19:14;4.18;;;2.47;;
46288;SDS011;63105;46.158;14.604;2023-06-14T11:21:42;3.15;;;2.03;;
46288;SDS011;63105;46.158;14.604;2023-06-14T11:24:09;4.70;;;2.17;;
46288;SDS011;63105;46.158;14.604;2023-06-14T11:26:37;4.00;;;2.28;;
46288;SDS011;63105;46.158;14.604;2023-06-14T11:29:02;3.60;;;1.75;;
46288;SDS011;63105;46.158;14.604;2023-06-14T11:31:27;3.47;;;2.10;;
46288;SDS011;63105;46.158;14.604;2023-06-14T11:33:53;3.97;;;2.20;;
46288;SDS011;63105;46.158;14.604;2023-06-14T11:36:18;3.88;;;2.38;;
46288;SDS011;63105;46.158;14.604;2023-06-14T11:38:44;4.50;;;2.63;;
46288;SDS011;63105;46.158;14.604;2023-06-14T11:41:09;4.20;;;2.80;;
46288;SDS011;63105;46.158;14.604;2023-06-14T11:43:34;4.82;;;2.10;;
46288;SDS011;63105;46.158;14.604;2023-06-14T11:46:00;3.60;;;2.22;;
46288;SDS011;63105;46.158;14.604;2023-06-14T11:48:38;3.50;;;2.03;;
46288;SDS011;63105;46.158;14.604;2023-06-14T11:51:03;3.60;;;2.03;;
46288;SDS011;63105;46.158;14.604;2023-06-14T11:53:29;3.40;;;1.80;;
46288;SDS011;63105;46.158;14.604;2023-06-14T11:55:54;3.85;;;2.25;;
46288;SDS011;63105;46.158;14.604;2023-06-14T11:58:19;7.22;;;2.83;;
46288;SDS011;63105;46.158;14.604;2023-06-14T12:00:45;4.57;;;2.57;;
46288;SDS011;63105;46.158;14.604;2023-06-14T12:03:13;3.58;;;2.30;;
46288;SDS011;63105;46.158;14.604;2023-06-14T12:05:38;4.23;;;3.03;;
46288;SDS011;63105;46.158;14.604;2023-06-14T12:08:04;4.93;;;2.97;;
46288;SDS011;63105;46.158;14.604;2023-06-14T12:10:39;3.78;;;2.40;;
46288;SDS011;63105;46.158;14.604;2023-06-14T12:13:04;3.58;;;2.03;;
46288;SDS011;63105;46.158;14.604;2023-06-14T12:15:31;3.60;;;2.15;;
46288;SDS011;63105;46.158;14.604;2023-06-14T12:17:57;3.20;;;2.00;;
46288;SDS011;63105;46.158;14.604;2023-06-14T12:20:22;3.47;;;2.08;;
46288;SDS011;63105;46.158;14.604;2023-06-14T12:22:52;4.63;;;2.00;;
46288;SDS011;63105;46.158;14.604;2023-06-14T12:25:28;4.10;;;2.35;;
46288;SDS011;63105;46.158;14.604;2023-06-14T12:30:21;3.47;;;2.10;;
46288;SDS011;63105;46.158;14.604;2023-06-14T12:32:46;3.87;;;2.50;;
46288;SDS011;63105;46.158;14.604;2023-06-14T12:35:11;3.47;;;2.10;;
46288;SDS011;63105;46.158;14.604;2023-06-14T12:37:36;3.90;;;2.60;;
46288;SDS011;63105;46.158;14.604;2023-06-14T12:40:03;4.10;;;2.40;;
46288;SDS011;63105;46.158;14.604;2023-06-14T12:42:32;3.83;;;2.40;;
46288;SDS011;63105;46.158;14.604;2023-06-14T12:44:58;3.63;;;2.00;;
46288;SDS011;63105;46.158;14.604;2023-06-14T12:47:23;4.07;;;2.55;;
46288;SDS011;63105;46.158;14.604;2023-06-14T12:49:49;5.00;;;2.90;;
46288;SDS011;63105;46.158;14.604;2023-06-14T12:52:14;3.47;;;2.22;;
46288;SDS011;63105;46.158;14.604;2023-06-14T12:54:39;3.67;;;2.00;;
46288;SDS011;63105;46.158;14.604;2023-06-14T12:57:05;3.50;;;1.90;;
46288;SDS011;63105;46.158;14.604;2023-06-14T12:59:30;3.17;;;1.70;;
46288;SDS011;63105;46.158;14.604;2023-06-14T13:01:58;3.38;;;2.00;;
46288;SDS011;63105;46.158;14.604;2023-06-14T13:04:23;3.50;;;2.28;;
46288;SDS011;63105;46.158;14.604;2023-06-14T13:06:48;3.83;;;2.40;;
46288;SDS011;63105;46.158;14.604;2023-06-14T13:09:14;3.20;;;2.10;;
46288;SDS011;63105;46.158;14.604;2023-06-14T13:11:40;4.05;;;2.38;;
46288;SDS011;63105;46.158;14.604;2023-06-14T13:14:05;3.73;;;2.47;;
46288;SDS011;63105;46.158;14.604;2023-06-14T13:16:30;3.90;;;2.20;;
46288;SDS011;63105;46.158;14.604;2023-06-14T13:18:56;4.18;;;2.30;;
46288;SDS011;63105;46.158;14.604;2023-06-14T13:21:21;3.67;;;2.10;;
46288;SDS011;63105;46.158;14.604;2023-06-14T13:23:46;3.00;;;1.80;;
46288;SDS011;63105;46.158;14.604;2023-06-14T13:26:11;3.50;;;2.07;;
46288;SDS011;63105;46.158;14.604;2023-06-14T13:28:37;3.22;;;1.95;;
46288;SDS011;63105;46.158;14.604;2023-06-14T13:31:02;3.23;;;1.93;;
46288;SDS011;63105;46.158;14.604;2023-06-14T13:33:27;4.00;;;2.50;;
46288;SDS011;63105;46.158;14.604;2023-06-14T13:35:53;5.00;;;2.53;;
46288;SDS011;63105;46.158;14.604;2023-06-14T13:38:18;3.63;;;2.20;;
46288;SDS011;63105;46.158;14.604;2023-06-14T13:40:43;4.47;;;2.40;;
46288;SDS011;63105;46.158;14.604;2023-06-14T13:43:08;3.50;;;2.30;;
46288;SDS011;63105;46.158;14.604;2023-06-14T13:45:34;3.63;;;2.27;;
46288;SDS011;63105;46.158;14.604;2023-06-14T13:48:00;4.95;;;2.70;;
46288;SDS011;63105;46.158;14.604;2023-06-14T13:50:25;3.97;;;2.30;;
46288;SDS011;63105;46.158;14.604;2023-06-14T13:52:50;3.60;;;2.13;;
46288;SDS011;63105;46.158;14.604;2023-06-14T13:55:15;4.37;;;2.27;;
46288;SDS011;63105;46.158;14.604;2023-06-14T13:57:41;3.33;;;1.80;;
46288;SDS011;63105;46.158;14.604;2023-06-14T14:00:06;3.03;;;1.90;;
46288;SDS011;63105;46.158;14.604;2023-06-14T14:02:31;3.67;;;2.03;;
46288;SDS011;63105;46.158;14.604;2023-06-14T14:04:56;3.93;;;2.00;;
46288;SDS011;63105;46.158;14.604;2023-06-14T14:07:22;3.72;;;2.20;;
46288;SDS011;63105;46.158;14.604;2023-06-14T14:09:48;3.42;;;2.10;;
46288;SDS011;63105;46.158;14.604;2023-06-14T14:12:14;3.97;;;2.20;;
46288;SDS011;63105;46.158;14.604;2023-06-14T14:14:39;3.35;;;2.17;;
46288;SDS011;63105;46.158;14.604;2023-06-14T14:17:05;3.58;;;2.00;;
46288;SDS011;63105;46.158;14.604;2023-06-14T14:19:31;4.47;;;2.30;;
46288;SDS011;63105;46.158;14.604;2023-06-14T14:21:57;3.30;;;1.90;;
46288;SDS011;63105;46.158;14.604;2023-06-14T14:24:22;4.17;;;2.47;;
46288;SDS011;63105;46.158;14.604;2023-06-14T14:26:47;4.10;;;2.20;;
46288;SDS011;63105;46.158;14.604;2023-06-14T14:29:14;3.80;;;2.40;;
46288;SDS011;63105;46.158;14.604;2023-06-14T14:31:39;3.42;;;2.17;;
46288;SDS011;63105;46.158;14.604;2023-06-14T14:34:05;4.13;;;2.00;;
46288;SDS011;63105;46.158;14.604;2023-06-14T14:36:30;3.93;;;2.00;;
46288;SDS011;63105;46.158;14.604;2023-06-14T14:38:55;3.50;;;2.23;;
46288;SDS011;63105;46.158;14.604;2023-06-14T14:41:20;3.87;;;2.27;;